createdAt,value
2019-01-11T00:00:39.740Z,19.18
2019-01-11T00:01:42.759Z,19.17
2019-01-11T00:02:43.917Z,19.16
2019-01-11T00:03:45.030Z,19.17
2019-01-11T00:04:46.253Z,19.15
2019-01-11T00:05:47.475Z,19.16
2019-01-11T00:06:48.688Z,19.15
2019-01-11T00:07:49.841Z,19.14
2019-01-11T00:08:50.952Z,19.14
2019-01-11T00:09:52.170Z,19.13
2019-01-11T00:10:53.278Z,19.13
2019-01-11T00:11:54.387Z,19.13
2019-01-11T00:12:55.520Z,19.12
2019-01-11T00:13:56.744Z,19.12
2019-01-11T00:14:57.856Z,19.13
2019-01-11T00:15:58.973Z,19.13
2019-01-11T00:17:00.084Z,19.13
2019-01-11T00:18:01.421Z,19.13
2019-01-11T00:19:07.214Z,19.13
2019-01-11T00:20:10.253Z,19.13
2019-01-11T00:21:11.370Z,19.13
2019-01-11T00:22:12.588Z,19.12
2019-01-11T00:23:13.719Z,19.11
2019-01-11T00:24:14.828Z,19.11
2019-01-11T00:25:16.044Z,19.10
2019-01-11T00:26:17.257Z,19.10
2019-01-11T00:27:18.367Z,19.09
2019-01-11T00:28:19.484Z,19.09
2019-01-11T00:29:20.609Z,19.07
2019-01-11T00:30:21.717Z,19.07
2019-01-11T00:31:22.838Z,19.07
2019-01-11T00:32:23.947Z,19.07
2019-01-11T00:33:25.215Z,19.06
2019-01-11T00:34:26.340Z,19.06
2019-01-11T00:35:27.449Z,19.07
2019-01-11T00:36:28.678Z,19.06
2019-01-11T00:37:29.892Z,19.06
2019-01-11T00:38:31.015Z,19.06
2019-01-11T00:39:32.129Z,19.08
2019-01-11T00:40:33.348Z,19.07
2019-01-11T00:41:35.518Z,19.08
2019-01-11T00:42:36.720Z,19.07
2019-01-11T00:43:37.844Z,19.08
2019-01-11T00:44:39.065Z,19.07
2019-01-11T00:45:40.172Z,19.07
2019-01-11T00:46:41.284Z,19.08
2019-01-11T00:47:42.396Z,19.07
2019-01-11T00:48:43.528Z,19.09
2019-01-11T00:49:44.650Z,19.08
2019-01-11T00:50:46.165Z,19.08
2019-01-11T00:51:47.277Z,19.10
2019-01-11T00:52:48.494Z,19.09
2019-01-11T00:53:49.751Z,19.10
2019-01-11T00:54:50.864Z,19.09
2019-01-11T00:55:51.971Z,19.09
2019-01-11T00:56:53.095Z,19.11
2019-01-11T00:57:54.205Z,19.10
2019-01-11T00:58:55.333Z,19.10
2019-01-11T00:59:56.445Z,19.10
2019-01-11T01:00:57.559Z,19.11
2019-01-11T01:01:58.673Z,19.11
2019-01-11T01:02:59.780Z,19.11
2019-01-11T01:04:01.313Z,19.11
2019-01-11T01:05:03.826Z,19.12
2019-01-11T01:06:05.131Z,19.11
2019-01-11T01:07:06.752Z,19.12
2019-01-11T01:08:08.056Z,19.11
2019-01-11T01:09:09.306Z,19.11
2019-01-11T01:10:10.826Z,19.11
2019-01-11T01:11:11.939Z,19.11
2019-01-11T01:12:13.159Z,19.11
2019-01-11T01:13:14.264Z,19.11
2019-01-11T01:14:15.484Z,19.10
2019-01-11T01:15:17.200Z,19.11
2019-01-11T01:16:18.305Z,19.10
2019-01-11T01:17:19.420Z,19.10
2019-01-11T01:18:20.828Z,19.10
2019-01-11T01:19:21.953Z,19.09
2019-01-11T01:20:23.064Z,19.08
2019-01-11T01:21:24.280Z,19.07
2019-01-11T01:22:25.387Z,19.06
2019-01-11T01:23:26.497Z,19.05
2019-01-11T01:24:27.728Z,19.04
2019-01-11T01:25:28.836Z,19.01
2019-01-11T01:26:30.052Z,19.01
2019-01-11T01:27:31.165Z,18.99
2019-01-11T01:28:32.281Z,18.98
2019-01-11T01:29:33.412Z,18.97
2019-01-11T01:30:34.524Z,18.97
2019-01-11T01:31:35.735Z,18.94
2019-01-11T01:32:36.846Z,18.94
2019-01-11T01:33:37.955Z,18.94
2019-01-11T01:34:39.082Z,18.93
2019-01-11T01:35:40.197Z,18.92
2019-01-11T01:36:41.408Z,18.91
2019-01-11T01:37:42.833Z,18.91
2019-01-11T01:38:43.950Z,18.90
2019-01-11T01:39:45.076Z,18.88
2019-01-11T01:40:46.193Z,18.87
2019-01-11T01:41:47.416Z,18.86
2019-01-11T01:42:48.632Z,18.86
2019-01-11T01:43:50.018Z,18.85
2019-01-11T01:44:51.241Z,18.84
2019-01-11T01:45:52.454Z,18.82
2019-01-11T01:46:53.566Z,18.81
2019-01-11T01:47:54.781Z,18.80
2019-01-11T01:48:55.898Z,18.78
2019-01-11T01:49:57.052Z,18.77
2019-01-11T01:50:58.172Z,18.73
2019-01-11T01:51:59.288Z,18.71
2019-01-11T01:53:00.500Z,18.70
2019-01-11T01:54:01.718Z,18.69
2019-01-11T01:55:05.573Z,18.67
2019-01-11T01:56:06.681Z,18.66
2019-01-11T01:57:07.793Z,18.64
2019-01-11T01:58:08.906Z,18.64
2019-01-11T01:59:10.018Z,18.62
2019-01-11T02:00:17.419Z,18.63
2019-01-11T02:01:18.632Z,18.62
2019-01-11T02:02:19.740Z,18.62
2019-01-11T02:03:20.850Z,18.62
2019-01-11T02:04:21.964Z,18.62
2019-01-11T02:05:23.091Z,18.62
2019-01-11T02:06:24.204Z,18.61
2019-01-11T02:07:25.312Z,18.63
2019-01-11T02:08:26.524Z,18.61
2019-01-11T02:09:27.748Z,18.60
2019-01-11T02:10:28.902Z,18.61
2019-01-11T02:11:30.120Z,18.61
2019-01-11T02:12:31.234Z,18.59
2019-01-11T02:13:32.346Z,18.59
2019-01-11T02:14:33.460Z,18.59
2019-01-11T02:15:34.760Z,18.58
2019-01-11T02:16:35.865Z,18.58
2019-01-11T02:17:37.081Z,18.57
2019-01-11T02:18:38.290Z,18.56
2019-01-11T02:19:39.496Z,18.55
2019-01-11T02:20:40.652Z,18.55
2019-01-11T02:21:41.763Z,18.55
2019-01-11T02:22:43.177Z,18.54
2019-01-11T02:23:44.293Z,18.54
2019-01-11T02:24:45.412Z,18.52
2019-01-11T02:25:46.793Z,18.53
2019-01-11T02:26:47.913Z,18.52
2019-01-11T02:27:49.133Z,18.52
2019-01-11T02:28:50.244Z,18.52
2019-01-11T02:29:51.369Z,18.52
2019-01-11T02:30:52.937Z,18.52
2019-01-11T02:31:54.207Z,18.52
2019-01-11T02:32:55.322Z,18.53
2019-01-11T02:33:56.424Z,18.52
2019-01-11T02:34:57.540Z,18.52
2019-01-11T02:35:58.666Z,18.52
2019-01-11T02:36:59.786Z,18.53
2019-01-11T02:38:00.908Z,18.53
2019-01-11T02:39:04.117Z,18.52
2019-01-11T02:40:07.745Z,18.53
2019-01-11T02:41:08.889Z,18.52
2019-01-11T02:42:10.008Z,18.52
2019-01-11T02:43:11.111Z,18.52
2019-01-11T02:44:12.222Z,18.53
2019-01-11T02:45:16.548Z,18.53
2019-01-11T02:46:17.994Z,18.53
2019-01-11T02:47:19.101Z,18.55
2019-01-11T02:48:20.215Z,18.54
2019-01-11T02:49:21.435Z,18.53
2019-01-11T02:50:22.561Z,18.54
2019-01-11T02:51:23.684Z,18.55
2019-01-11T02:52:24.800Z,18.54
2019-01-11T02:53:26.020Z,18.54
2019-01-11T02:54:27.137Z,18.55
2019-01-11T02:55:28.355Z,18.55
2019-01-11T02:56:29.477Z,18.55
2019-01-11T02:57:30.585Z,18.54
2019-01-11T02:58:31.702Z,18.55
2019-01-11T02:59:32.808Z,18.55
2019-01-11T03:00:33.928Z,18.56
2019-01-11T03:01:35.042Z,18.55
2019-01-11T03:02:36.248Z,18.55
2019-01-11T03:03:37.366Z,18.54
2019-01-11T03:04:38.473Z,18.55
2019-01-11T03:05:39.624Z,18.54
2019-01-11T03:06:40.725Z,18.54
2019-01-11T03:07:42.438Z,18.55
2019-01-11T03:08:43.548Z,18.55
2019-01-11T03:09:45.065Z,18.54
2019-01-11T03:10:46.182Z,18.55
2019-01-11T03:11:47.408Z,18.55
2019-01-11T03:12:48.616Z,18.54
2019-01-11T03:13:49.748Z,18.55
2019-01-11T03:14:50.848Z,18.55
2019-01-11T03:15:51.960Z,18.56
2019-01-11T03:16:53.681Z,18.55
2019-01-11T03:17:54.796Z,18.54
2019-01-11T03:18:55.909Z,18.55
2019-01-11T03:19:57.026Z,18.55
2019-01-11T03:20:58.242Z,18.54
2019-01-11T03:21:59.468Z,18.54
2019-01-11T03:23:00.577Z,18.54
2019-01-11T03:24:01.690Z,18.52
2019-01-11T03:25:04.606Z,18.52
2019-01-11T03:26:05.829Z,18.51
2019-01-11T03:27:06.956Z,18.50
2019-01-11T03:28:08.081Z,18.49
2019-01-11T03:29:09.196Z,18.48
2019-01-11T03:30:18.562Z,18.47
2019-01-11T03:31:21.597Z,18.48
2019-01-11T03:32:22.808Z,18.47
2019-01-11T03:33:23.927Z,18.46
2019-01-11T03:34:25.094Z,18.45
2019-01-11T03:35:26.233Z,18.45
2019-01-11T03:36:27.348Z,18.43
2019-01-11T03:37:28.496Z,18.44
2019-01-11T03:38:29.735Z,18.43
2019-01-11T03:39:30.840Z,18.42
2019-01-11T03:40:31.951Z,18.42
2019-01-11T03:41:34.974Z,18.42
2019-01-11T03:42:36.200Z,18.41
2019-01-11T03:43:37.310Z,18.42
2019-01-11T03:44:38.524Z,18.41
2019-01-11T03:45:39.638Z,18.40
2019-01-11T03:46:40.762Z,18.41
2019-01-11T03:47:42.081Z,18.39
2019-01-11T03:48:43.196Z,18.40
2019-01-11T03:49:44.315Z,18.40
2019-01-11T03:50:45.536Z,18.41
2019-01-11T03:51:46.654Z,18.41
2019-01-11T03:52:47.782Z,18.40
2019-01-11T03:53:48.997Z,18.41
2019-01-11T03:54:50.117Z,18.40
2019-01-11T03:55:51.231Z,18.41
2019-01-11T03:56:52.344Z,18.42
2019-01-11T03:57:53.474Z,18.41
2019-01-11T03:58:54.589Z,18.41
2019-01-11T03:59:55.708Z,18.42
2019-01-11T04:00:56.819Z,18.43
2019-01-11T04:01:57.930Z,18.42
2019-01-11T04:02:59.060Z,18.42
2019-01-11T04:04:00.186Z,18.43
2019-01-11T04:05:01.401Z,18.19
2019-01-11T04:06:02.908Z,18.43
2019-01-11T04:07:04.023Z,18.44
2019-01-11T04:08:05.241Z,18.44
2019-01-11T04:09:08.348Z,18.45
2019-01-11T04:10:12.762Z,18.48
2019-01-11T04:11:13.873Z,18.49
2019-01-11T04:12:14.986Z,18.50
2019-01-11T04:13:16.112Z,18.51
2019-01-11T04:14:17.222Z,18.51
2019-01-11T04:15:19.840Z,18.53
2019-01-11T04:16:20.959Z,18.55
2019-01-11T04:17:22.175Z,18.55
2019-01-11T04:18:27.973Z,18.54
2019-01-11T04:19:29.080Z,18.55
2019-01-11T04:20:30.193Z,18.55
2019-01-11T04:21:31.308Z,18.55
2019-01-11T04:22:32.526Z,18.55
2019-01-11T04:23:33.682Z,18.54
2019-01-11T04:24:36.707Z,18.55
2019-01-11T04:25:38.514Z,18.54
2019-01-11T04:26:39.627Z,18.54
2019-01-11T04:27:40.736Z,18.54
2019-01-11T04:28:41.867Z,18.53
2019-01-11T04:29:43.003Z,18.52
2019-01-11T04:30:44.123Z,18.53
2019-01-11T04:31:45.236Z,18.51
2019-01-11T04:32:46.448Z,18.51
2019-01-11T04:33:47.572Z,18.50
2019-01-11T04:34:48.685Z,18.50
2019-01-11T04:35:49.809Z,18.50
2019-01-11T04:36:50.923Z,18.49
2019-01-11T04:37:52.140Z,18.48
2019-01-11T04:38:53.291Z,18.48
2019-01-11T04:39:54.392Z,18.47
2019-01-11T04:40:55.509Z,18.47
2019-01-11T04:41:56.624Z,18.46
2019-01-11T04:42:57.750Z,18.46
2019-01-11T04:43:58.892Z,18.46
2019-01-11T04:45:00.009Z,18.46
2019-01-11T04:46:01.121Z,18.46
2019-01-11T04:47:02.328Z,18.47
2019-01-11T04:48:03.438Z,18.47
2019-01-11T04:49:04.567Z,18.47
2019-01-11T04:50:09.879Z,18.47
2019-01-11T04:51:11.228Z,18.49
2019-01-11T04:52:12.342Z,18.49
2019-01-11T04:53:13.457Z,18.49
2019-01-11T04:54:14.613Z,18.48
2019-01-11T04:55:15.828Z,18.48
2019-01-11T04:56:16.938Z,18.48
2019-01-11T04:57:18.051Z,18.49
2019-01-11T04:58:19.267Z,18.49
2019-01-11T04:59:20.401Z,18.49
2019-01-11T05:00:21.823Z,18.50
2019-01-11T05:01:22.924Z,18.50
2019-01-11T05:02:24.038Z,18.50
2019-01-11T05:03:25.150Z,18.50
2019-01-11T05:04:26.456Z,18.51
2019-01-11T05:05:27.568Z,18.49
2019-01-11T05:06:28.676Z,18.50
2019-01-11T05:07:29.787Z,18.50
2019-01-11T05:08:30.901Z,18.51
2019-01-11T05:09:32.071Z,18.50
2019-01-11T05:10:33.179Z,18.51
2019-01-11T05:11:34.292Z,18.51
2019-01-11T05:12:35.711Z,18.50
2019-01-11T05:13:37.625Z,18.49
2019-01-11T05:14:38.747Z,18.50
2019-01-11T05:15:39.971Z,18.50
2019-01-11T05:16:41.656Z,18.50
2019-01-11T05:17:42.900Z,18.49
2019-01-11T05:18:44.118Z,18.50
2019-01-11T05:19:45.408Z,18.49
2019-01-11T05:20:46.636Z,18.48
2019-01-11T05:21:47.747Z,18.48
2019-01-11T05:22:48.966Z,18.49
2019-01-11T05:23:50.081Z,18.49
2019-01-11T05:24:51.197Z,18.47
2019-01-11T05:25:52.316Z,18.47
2019-01-11T05:26:53.429Z,18.48
2019-01-11T05:27:54.551Z,18.48
2019-01-11T05:28:55.768Z,18.47
2019-01-11T05:29:57.040Z,18.48
2019-01-11T05:30:58.454Z,18.48
2019-01-11T05:31:59.568Z,18.49
2019-01-11T05:33:00.683Z,18.48
2019-01-11T05:34:01.796Z,18.49
2019-01-11T05:35:04.625Z,18.49
2019-01-11T05:36:05.730Z,18.49
2019-01-11T05:37:06.841Z,18.50
2019-01-11T05:38:07.963Z,18.50
2019-01-11T05:39:09.083Z,18.50
2019-01-11T05:40:15.544Z,18.51
2019-01-11T05:41:16.759Z,18.51
2019-01-11T05:42:17.977Z,18.36
2019-01-11T05:43:19.088Z,18.50
2019-01-11T05:44:20.200Z,18.50
2019-01-11T05:45:23.145Z,18.49
2019-01-11T05:46:24.258Z,18.48
2019-01-11T05:47:25.489Z,18.50
2019-01-11T05:48:26.705Z,18.49
2019-01-11T05:49:27.821Z,18.49
2019-01-11T05:50:28.945Z,18.47
2019-01-11T05:51:30.062Z,18.47
2019-01-11T05:52:31.176Z,18.47
2019-01-11T05:53:32.443Z,18.46
2019-01-11T05:54:33.511Z,18.44
2019-01-11T05:55:44.740Z,18.44
2019-01-11T05:56:45.944Z,18.44
2019-01-11T05:57:48.964Z,18.45
2019-01-11T05:58:51.982Z,18.44
2019-01-11T05:59:53.793Z,18.43
2019-01-11T06:00:55.021Z,18.43
2019-01-11T06:01:56.234Z,18.42
2019-01-11T06:02:57.445Z,18.41
2019-01-11T06:03:58.665Z,18.41
2019-01-11T06:05:00.220Z,18.41
2019-01-11T06:06:01.563Z,18.39
2019-01-11T06:07:04.713Z,18.40
2019-01-11T06:08:07.729Z,18.40
2019-01-11T06:09:08.845Z,18.41
2019-01-11T06:10:12.657Z,18.42
2019-01-11T06:11:13.785Z,18.44
2019-01-11T06:12:14.997Z,18.45
2019-01-11T06:13:16.108Z,18.47
2019-01-11T06:14:17.226Z,18.50
2019-01-11T06:15:18.443Z,18.52
2019-01-11T06:16:19.573Z,18.56
2019-01-11T06:17:20.842Z,18.59
2019-01-11T06:18:21.908Z,18.63
2019-01-11T06:19:23.021Z,18.66
2019-01-11T06:20:30.019Z,18.72
2019-01-11T06:21:27.161Z,18.77
2019-01-11T06:22:28.367Z,18.83
2019-01-11T06:23:29.480Z,18.87
2019-01-11T06:24:30.588Z,18.94
2019-01-11T06:25:31.710Z,19.00
2019-01-11T06:26:32.867Z,19.06
2019-01-11T06:27:34.957Z,19.13
2019-01-11T06:28:36.070Z,19.18
2019-01-11T06:29:37.497Z,19.25
2019-01-11T06:30:38.621Z,19.32
2019-01-11T06:31:39.949Z,19.38
2019-01-11T06:32:41.056Z,19.43
2019-01-11T06:33:42.168Z,19.49
2019-01-11T06:34:43.472Z,19.54
2019-01-11T06:35:44.586Z,19.60
2019-01-11T06:36:45.742Z,19.64
2019-01-11T06:37:46.865Z,19.70
2019-01-11T06:38:48.048Z,19.74
2019-01-11T06:39:49.132Z,19.78
2019-01-11T06:40:50.344Z,19.81
2019-01-11T06:41:53.375Z,19.86
2019-01-11T06:42:54.488Z,19.90
2019-01-11T06:43:55.722Z,19.93
2019-01-11T06:44:58.435Z,19.96
2019-01-11T06:45:59.556Z,19.99
2019-01-11T06:47:00.679Z,20.02
2019-01-11T06:48:01.894Z,20.05
2019-01-11T06:49:03.503Z,20.07
2019-01-11T06:50:08.612Z,20.09
2019-01-11T06:51:09.927Z,20.12
2019-01-11T06:52:11.047Z,20.14
2019-01-11T06:53:12.168Z,20.16
2019-01-11T06:54:14.413Z,20.18
2019-01-11T06:55:15.515Z,20.19
2019-01-11T06:56:16.630Z,20.21
2019-01-11T06:57:17.756Z,20.22
2019-01-11T06:58:18.868Z,20.24
2019-01-11T06:59:20.112Z,20.23
2019-01-11T07:00:21.328Z,20.25
2019-01-11T07:01:22.440Z,20.25
2019-01-11T07:02:23.572Z,20.26
2019-01-11T07:03:24.681Z,20.27
2019-01-11T07:04:25.792Z,20.29
2019-01-11T07:05:26.906Z,20.28
2019-01-11T07:06:28.021Z,20.28
2019-01-11T07:07:29.349Z,20.28
2019-01-11T07:08:30.468Z,20.28
2019-01-11T07:09:31.579Z,20.28
2019-01-11T07:10:32.796Z,20.28
2019-01-11T07:11:33.911Z,20.28
2019-01-11T07:12:35.036Z,20.28
2019-01-11T07:13:36.161Z,20.27
2019-01-11T07:14:37.378Z,20.27
2019-01-11T07:15:38.488Z,20.27
2019-01-11T07:16:39.602Z,20.27
2019-01-11T07:17:40.883Z,20.27
2019-01-11T07:18:42.016Z,20.25
2019-01-11T07:19:43.230Z,20.26
2019-01-11T07:20:44.583Z,20.26
2019-01-11T07:21:45.762Z,20.26
2019-01-11T07:22:46.874Z,20.26
2019-01-11T07:23:48.120Z,20.26
2019-01-11T07:24:49.234Z,20.25
2019-01-11T07:25:50.352Z,20.26
2019-01-11T07:26:51.566Z,20.26
2019-01-11T07:28:00.437Z,20.25
2019-01-11T07:29:01.805Z,20.25
2019-01-11T07:30:06.243Z,20.23
2019-01-11T07:31:07.749Z,20.24
2019-01-11T07:32:08.870Z,20.24
2019-01-11T07:33:11.890Z,20.23
2019-01-11T07:34:13.107Z,20.23
2019-01-11T07:35:14.219Z,20.23
2019-01-11T07:36:28.321Z,20.22
2019-01-11T07:37:29.427Z,20.23
2019-01-11T07:38:30.638Z,20.23
2019-01-11T07:39:31.873Z,20.23
2019-01-11T07:40:32.997Z,20.23
2019-01-11T07:41:34.114Z,20.23
2019-01-11T07:42:35.330Z,20.23
2019-01-11T07:43:36.454Z,20.24
2019-01-11T07:44:37.672Z,20.24
2019-01-11T07:45:38.884Z,20.25
2019-01-11T07:46:41.909Z,20.25
2019-01-11T07:47:43.020Z,20.25
2019-01-11T07:48:44.236Z,20.26
2019-01-11T07:49:45.468Z,20.25
2019-01-11T07:50:49.433Z,20.27
2019-01-11T07:51:49.599Z,20.26
2019-01-11T07:52:50.709Z,20.27
2019-01-11T07:53:51.829Z,20.27
2019-01-11T07:54:53.186Z,20.28
2019-01-11T07:55:54.304Z,20.27
2019-01-11T07:56:57.315Z,20.27
2019-01-11T07:57:58.534Z,20.27
2019-01-11T07:58:59.646Z,20.26
2019-01-11T08:00:00.802Z,20.27
2019-01-11T08:01:02.004Z,20.27
2019-01-11T08:02:03.313Z,20.28
2019-01-11T08:03:04.417Z,20.26
2019-01-11T08:04:05.732Z,20.26
2019-01-11T08:05:07.161Z,20.25
2019-01-11T08:06:08.368Z,20.25
2019-01-11T08:07:09.476Z,20.24
2019-01-11T08:08:10.587Z,20.23
2019-01-11T08:09:11.802Z,20.23
2019-01-11T08:10:12.924Z,20.23
2019-01-11T08:11:14.144Z,20.22
2019-01-11T08:12:15.257Z,20.22
2019-01-11T08:13:16.375Z,20.21
2019-01-11T08:14:17.489Z,20.21
2019-01-11T08:15:18.632Z,20.21
2019-01-11T08:16:19.841Z,20.20
2019-01-11T08:17:20.961Z,20.20
2019-01-11T08:18:22.174Z,20.19
2019-01-11T08:19:23.284Z,20.17
2019-01-11T08:20:24.704Z,20.15
2019-01-11T08:21:25.819Z,20.14
2019-01-11T08:22:28.836Z,20.15
2019-01-11T08:23:29.948Z,20.12
2019-01-11T08:24:31.061Z,20.10
2019-01-11T08:25:32.213Z,20.10
2019-01-11T08:26:33.325Z,20.08
2019-01-11T08:27:34.432Z,20.06
2019-01-11T08:28:35.544Z,20.06
2019-01-11T08:29:36.656Z,20.04
2019-01-11T08:30:37.903Z,20.04
2019-01-11T08:31:39.111Z,20.03
2019-01-11T08:32:40.217Z,20.02
2019-01-11T08:33:41.438Z,20.00
2019-01-11T08:34:42.653Z,19.99
2019-01-11T08:35:43.979Z,19.99
2019-01-11T08:36:45.195Z,19.97
2019-01-11T08:37:46.410Z,19.97
2019-01-11T08:38:47.527Z,19.97
2019-01-11T08:39:48.652Z,19.96
2019-01-11T08:40:49.793Z,19.96
2019-01-11T08:41:51.015Z,19.95
2019-01-11T08:42:52.132Z,19.94
2019-01-11T08:43:53.358Z,19.94
2019-01-11T08:44:54.477Z,19.94
2019-01-11T08:45:55.607Z,19.94
2019-01-11T08:46:56.723Z,19.94
2019-01-11T08:47:57.837Z,19.94
2019-01-11T08:48:58.955Z,19.94
2019-01-11T08:50:00.217Z,19.93
2019-01-11T08:51:02.777Z,19.94
2019-01-11T08:52:04.108Z,19.93
2019-01-11T08:53:05.215Z,19.94
2019-01-11T08:54:06.430Z,19.93
2019-01-11T08:55:07.543Z,19.94
2019-01-11T08:56:08.783Z,19.95
2019-01-11T08:57:10.016Z,19.94
2019-01-11T08:58:11.624Z,19.94
2019-01-11T08:59:12.727Z,19.93
2019-01-11T09:00:14.945Z,19.94
2019-01-11T09:01:16.071Z,19.93
2019-01-11T09:02:17.189Z,19.93
2019-01-11T09:03:18.404Z,19.93
2019-01-11T09:04:19.624Z,19.92
2019-01-11T09:05:20.740Z,19.91
2019-01-11T09:06:21.873Z,19.91
2019-01-11T09:07:22.986Z,19.92
2019-01-11T09:08:24.094Z,19.90
2019-01-11T09:09:25.208Z,19.90
2019-01-11T09:10:26.333Z,19.88
2019-01-11T09:11:27.625Z,19.87
2019-01-11T09:12:28.836Z,19.87
2019-01-11T09:13:29.950Z,19.86
2019-01-11T09:14:32.976Z,19.60
2019-01-11T09:15:34.093Z,19.83
2019-01-11T09:16:35.328Z,19.84
2019-01-11T09:17:38.343Z,19.83
2019-01-11T09:18:41.367Z,19.83
2019-01-11T09:19:42.476Z,19.82
2019-01-11T09:20:43.590Z,19.82
2019-01-11T09:21:44.719Z,19.81
2019-01-11T09:22:45.843Z,19.79
2019-01-11T09:23:46.953Z,19.79
2019-01-11T09:24:48.183Z,19.77
2019-01-11T09:25:49.297Z,19.77
2019-01-11T09:26:51.563Z,19.76
2019-01-11T09:27:52.751Z,19.75
2019-01-11T09:28:54.296Z,19.76
2019-01-11T09:29:55.431Z,19.75
2019-01-11T09:30:56.539Z,19.75
2019-01-11T09:31:57.775Z,19.74
2019-01-11T09:32:58.933Z,19.74
2019-01-11T09:34:00.047Z,19.73
2019-01-11T09:35:01.160Z,19.71
2019-01-11T09:36:02.394Z,19.71
2019-01-11T09:37:03.629Z,19.71
2019-01-11T09:38:04.860Z,19.71
2019-01-11T09:39:07.248Z,19.70
2019-01-11T09:40:08.999Z,19.70
2019-01-11T09:41:10.313Z,19.70
2019-01-11T09:42:11.440Z,19.70
2019-01-11T09:43:12.652Z,19.71
2019-01-11T09:44:13.772Z,19.71
2019-01-11T09:45:14.883Z,19.71
2019-01-11T09:46:15.998Z,19.70
2019-01-11T09:47:17.258Z,19.70
2019-01-11T09:48:18.376Z,19.69
2019-01-11T09:49:19.494Z,19.70
2019-01-11T09:50:20.708Z,19.68
2019-01-11T09:51:21.924Z,19.68
2019-01-11T09:52:23.052Z,19.69
2019-01-11T09:53:24.160Z,19.67
2019-01-11T09:54:25.275Z,19.67
2019-01-11T09:55:26.391Z,19.67
2019-01-11T09:56:27.505Z,19.64
2019-01-11T09:57:28.739Z,19.65
2019-01-11T09:58:29.860Z,19.64
2019-01-11T09:59:35.044Z,19.64
2019-01-11T10:00:33.979Z,19.64
2019-01-11T10:01:35.093Z,19.64
2019-01-11T10:02:37.885Z,19.64
2019-01-11T10:03:39.043Z,19.65
2019-01-11T10:04:40.955Z,19.64
2019-01-11T10:05:42.274Z,19.64
2019-01-11T10:06:45.303Z,19.64
2019-01-11T10:07:46.577Z,19.64
2019-01-11T10:08:47.694Z,19.62
2019-01-11T10:09:48.912Z,19.61
2019-01-11T10:10:50.026Z,19.61
2019-01-11T10:11:51.247Z,19.59
2019-01-11T10:12:52.389Z,19.59
2019-01-11T10:13:53.504Z,19.57
2019-01-11T10:14:54.619Z,19.56
2019-01-11T10:15:55.736Z,19.56
2019-01-11T10:16:56.849Z,19.57
2019-01-11T10:17:58.080Z,19.56
2019-01-11T10:18:59.199Z,19.57
2019-01-11T10:20:00.407Z,19.55
2019-01-11T10:21:01.520Z,19.57
2019-01-11T10:22:02.750Z,19.56
2019-01-11T10:23:04.088Z,19.55
2019-01-11T10:24:05.193Z,19.56
2019-01-11T10:25:08.512Z,19.55
2019-01-11T10:26:11.429Z,19.56
2019-01-11T10:27:12.643Z,19.55
2019-01-11T10:28:13.876Z,19.55
2019-01-11T10:29:14.994Z,19.54
2019-01-11T10:30:18.046Z,19.54
2019-01-11T10:31:19.167Z,19.55
2019-01-11T10:32:20.376Z,19.54
2019-01-11T10:33:21.608Z,19.54
2019-01-11T10:34:22.722Z,19.52
2019-01-11T10:35:23.929Z,19.53
2019-01-11T10:36:25.056Z,19.52
2019-01-11T10:37:26.160Z,19.53
2019-01-11T10:38:27.295Z,19.54
2019-01-11T10:39:28.418Z,19.53
2019-01-11T10:40:29.638Z,19.53
2019-01-11T10:41:30.868Z,19.53
2019-01-11T10:42:31.985Z,19.52
2019-01-11T10:43:33.135Z,19.53
2019-01-11T10:44:34.249Z,19.52
2019-01-11T10:45:35.408Z,19.51
2019-01-11T10:46:37.176Z,19.52
2019-01-11T10:47:38.292Z,19.52
2019-01-11T10:48:39.433Z,19.51
2019-01-11T10:49:40.543Z,19.51
2019-01-11T10:50:41.650Z,19.52
2019-01-11T10:51:42.868Z,19.52
2019-01-11T10:52:43.977Z,19.52
2019-01-11T10:53:45.130Z,19.53
2019-01-11T10:54:46.743Z,19.52
2019-01-11T10:55:47.861Z,19.52
2019-01-11T10:56:49.074Z,19.53
2019-01-11T10:57:50.295Z,19.53
2019-01-11T10:58:51.547Z,19.53
2019-01-11T10:59:52.767Z,19.53
2019-01-11T11:00:53.878Z,19.51
2019-01-11T11:01:55.552Z,19.52
2019-01-11T11:02:56.752Z,19.53
2019-01-11T11:03:57.879Z,19.52
2019-01-11T11:04:58.987Z,19.51
2019-01-11T11:06:00.607Z,19.51
2019-01-11T11:07:01.822Z,19.52
2019-01-11T11:08:03.332Z,19.51
2019-01-11T11:09:05.981Z,19.51
2019-01-11T11:10:09.602Z,19.51
2019-01-11T11:11:10.713Z,19.51
2019-01-11T11:12:11.933Z,19.50
2019-01-11T11:13:13.056Z,19.50
2019-01-11T11:14:14.211Z,19.51
2019-01-11T11:15:17.016Z,19.51
2019-01-11T11:16:18.230Z,19.52
2019-01-11T11:17:19.346Z,19.51
2019-01-11T11:18:20.462Z,19.50
2019-01-11T11:19:21.691Z,19.51
2019-01-11T11:20:22.909Z,19.49
2019-01-11T11:21:24.022Z,19.49
2019-01-11T11:22:25.136Z,19.48
2019-01-11T11:23:26.248Z,19.47
2019-01-11T11:24:27.502Z,19.47
2019-01-11T11:25:30.073Z,19.46
2019-01-11T11:26:31.350Z,19.46
2019-01-11T11:27:32.461Z,19.46
2019-01-11T11:28:33.575Z,19.46
2019-01-11T11:29:34.812Z,19.45
2019-01-11T11:30:36.924Z,19.45
2019-01-11T11:31:38.083Z,19.44
2019-01-11T11:32:46.677Z,19.43
2019-01-11T11:33:47.794Z,19.42
2019-01-11T11:34:49.091Z,19.41
2019-01-11T11:35:50.205Z,19.39
2019-01-11T11:36:51.322Z,19.40
2019-01-11T11:37:52.846Z,19.39
2019-01-11T11:38:53.965Z,19.38
2019-01-11T11:39:55.196Z,19.39
2019-01-11T11:40:56.322Z,19.38
2019-01-11T11:41:57.444Z,19.38
2019-01-11T11:42:58.652Z,19.36
2019-01-11T11:43:59.763Z,19.36
2019-01-11T11:45:00.894Z,19.37
2019-01-11T11:46:02.005Z,19.36
2019-01-11T11:47:03.220Z,19.35
2019-01-11T11:48:04.325Z,19.35
2019-01-11T11:49:05.432Z,19.34
2019-01-11T11:50:08.761Z,19.34
2019-01-11T11:51:09.968Z,19.34
2019-01-11T11:52:11.083Z,19.34
2019-01-11T11:53:12.201Z,19.33
2019-01-11T11:54:13.410Z,19.33
2019-01-11T11:55:14.642Z,19.33
2019-01-11T11:56:15.774Z,19.33
2019-01-11T11:57:16.972Z,19.32
2019-01-11T11:58:18.085Z,19.32
2019-01-11T11:59:19.200Z,19.33
2019-01-11T12:00:21.786Z,19.33
2019-01-11T12:01:23.002Z,19.32
2019-01-11T12:02:24.111Z,19.32
2019-01-11T12:03:25.231Z,19.31
2019-01-11T12:04:26.345Z,19.32
2019-01-11T12:05:27.655Z,19.33
2019-01-11T12:06:28.772Z,19.32
2019-01-11T12:07:29.884Z,19.33
2019-01-11T12:08:31.202Z,19.32
2019-01-11T12:09:32.428Z,19.32
2019-01-11T12:10:33.578Z,19.32
2019-01-11T12:11:34.693Z,19.31
2019-01-11T12:12:35.906Z,19.31
2019-01-11T12:13:37.017Z,19.30
2019-01-11T12:14:38.134Z,19.30
2019-01-11T12:15:39.368Z,19.29
2019-01-11T12:16:40.585Z,19.29
2019-01-11T12:17:41.797Z,19.29
2019-01-11T12:18:42.912Z,19.29
2019-01-11T12:19:44.032Z,19.29
2019-01-11T12:20:45.155Z,19.28
2019-01-11T12:21:47.851Z,19.30
2019-01-11T12:22:49.276Z,19.30
2019-01-11T12:23:50.390Z,19.33
2019-01-11T12:24:51.500Z,19.33
2019-01-11T12:25:52.750Z,19.34
2019-01-11T12:26:53.973Z,19.35
2019-01-11T12:27:55.089Z,19.34
2019-01-11T12:28:56.212Z,19.35
2019-01-11T12:29:57.326Z,19.34
2019-01-11T12:30:58.458Z,19.35
2019-01-11T12:31:59.573Z,19.35
2019-01-11T12:33:00.800Z,19.35
2019-01-11T12:34:02.014Z,19.35
2019-01-11T12:35:04.150Z,19.33
2019-01-11T12:36:05.322Z,19.33
2019-01-11T12:37:06.443Z,19.33
2019-01-11T12:38:13.541Z,19.32
2019-01-11T12:39:10.686Z,19.31
2019-01-11T12:40:13.705Z,19.32
2019-01-11T12:41:14.841Z,19.31
2019-01-11T12:42:15.969Z,19.31
2019-01-11T12:43:17.083Z,19.30
2019-01-11T12:44:18.306Z,19.31
2019-01-11T12:45:19.419Z,19.30
2019-01-11T12:46:20.545Z,19.29
2019-01-11T12:47:21.660Z,19.29
2019-01-11T12:48:22.773Z,19.30
2019-01-11T12:49:23.886Z,19.29
2019-01-11T12:50:25.198Z,19.30
2019-01-11T12:51:26.424Z,19.30
2019-01-11T12:52:27.538Z,19.30
2019-01-11T12:53:28.650Z,19.31
2019-01-11T12:54:29.785Z,19.31
2019-01-11T12:55:30.885Z,19.31
2019-01-11T12:56:32.142Z,19.30
2019-01-11T12:57:33.251Z,19.29
2019-01-11T12:58:34.365Z,19.31
2019-01-11T12:59:35.579Z,19.29
2019-01-11T13:00:36.693Z,19.30
2019-01-11T13:01:37.920Z,19.30
2019-01-11T13:02:39.038Z,19.30
2019-01-11T13:03:40.151Z,19.29
2019-01-11T13:04:41.570Z,19.29
2019-01-11T13:05:42.789Z,19.29
2019-01-11T13:06:44.018Z,19.29
2019-01-11T13:07:45.331Z,19.29
2019-01-11T13:08:46.453Z,19.28
2019-01-11T13:09:47.676Z,19.29
2019-01-11T13:10:48.888Z,19.27